Time;durP1;ratioP1;P1;durP2;ratioP2;P2;SDS_P1;SDS_P2;PMS_P1;PMS_P2;Temp;Humidity;BMP_temperature;BMP_pressure;BME280_temperature;BME280_humidity;BME280_pressure;Samples;Min_cycle;Max_cycle;Signal;HPM_P1;HPM_P2
2022/11/04 00:02:04;;;;;;;1.90;0.93;;;;;;;;;;4801490;29;20058;-73
2022/11/04 00:04:34;;;;;;;6.07;0.80;;;;;;;;;;4802814;29;20062;-72
2022/11/04 00:08:22;;;;;;;3.13;1.00;;;;;;;;;;4802396;29;20051;-73
2022/11/04 00:09:54;;;;;;;1.02;0.68;;;;;;;;;;4802726;29;20533;-73
2022/11/04 00:12:24;;;;;;;6.40;0.80;;;;;;;;;;4802811;29;20462;-73
2022/11/04 00:17:17;;;;;;;2.47;0.80;;;;;;;;;;4802622;29;20058;-73
2022/11/04 00:17:44;;;;;;;2.45;1.08;;;;;;;;;;4802975;29;20055;-73
2022/11/04 00:28:44;;;;;;;9.75;1.30;;;;;;;;;;4801369;29;19934;-73
2022/11/04 00:34:03;;;;;;;3.58;1.15;;;;;;;;;;4802269;29;20058;-73
2022/11/04 00:36:33;;;;;;;4.82;1.08;;;;;;;;;;4801680;29;20055;-73
2022/11/04 00:39:03;;;;;;;2.42;0.82;;;;;;;;;;4801982;29;20047;-73
2022/11/04 00:41:33;;;;;;;3.95;0.95;;;;;;;;;;4802166;29;20065;-73
2022/11/04 00:44:04;;;;;;;5.60;1.45;;;;;;;;;;4801664;29;20055;-73
2022/11/04 00:46:35;;;;;;;8.30;1.60;;;;;;;;;;4802279;29;20529;-73
2022/11/04 00:49:04;;;;;;;3.00;0.85;;;;;;;;;;4802462;29;20533;-73
2022/11/04 00:51:34;;;;;;;4.97;0.90;;;;;;;;;;4802538;29;20399;-72
2022/11/04 00:54:05;;;;;;;2.17;1.00;;;;;;;;;;4802306;29;20074;-73
2022/11/04 00:56:38;;;;;;;6.18;1.10;;;;;;;;;;4802337;29;20063;-73
2022/11/04 00:59:09;;;;;;;3.38;1.10;;;;;;;;;;4802061;29;20061;-73
2022/11/04 01:01:42;;;;;;;4.93;1.67;;;;;;;;;;4802727;29;20058;-73
2022/11/04 01:04:13;;;;;;;1.85;0.95;;;;;;;;;;4801678;29;20047;-72
2022/11/04 01:06:43;;;;;;;6.63;1.15;;;;;;;;;;4801810;29;20138;-72
2022/11/04 01:09:14;;;;;;;3.97;1.13;;;;;;;;;;4802132;29;20054;-73
2022/11/04 01:11:44;;;;;;;4.88;1.40;;;;;;;;;;4802065;29;20510;-73
2022/11/04 01:14:14;;;;;;;3.10;1.00;;;;;;;;;;4801675;29;20073;-73
2022/11/04 01:16:44;;;;;;;4.22;1.15;;;;;;;;;;4801881;29;20066;-73
2022/11/04 01:19:13;;;;;;;;;;;;;;;;;;4802354;29;20051;-73
2022/11/04 01:21:43;;;;;;;3.15;0.98;;;;;;;;;;4801712;29;19925;-73
2022/11/04 01:24:13;;;;;;;3.15;1.17;;;;;;;;;;4800354;29;20055;-74
2022/11/04 01:26:42;;;;;;;;;;;;;;;;;;4802211;29;20054;-72
2022/11/04 01:29:12;;;;;;;2.95;0.98;;;;;;;;;;4800405;29;19928;-73
2022/11/04 01:31:42;;;;;;;;;;;;;;;;;;4802547;29;20066;-73
2022/11/04 01:34:11;;;;;;;3.30;1.10;;;;;;;;;;4805549;29;19925;-73
2022/11/04 01:36:41;;;;;;;1.40;0.88;;;;;;;;;;4803794;29;20065;-72
2022/11/04 01:39:12;;;;;;;;;;;;;;;;;;4802490;29;20109;-73
2022/11/04 01:41:41;;;;;;;2.85;1.13;;;;;;;;;;4801170;29;19929;-73
2022/11/04 01:44:41;;;;;;;2.90;1.10;;;;;;;;;;4801307;29;20058;-73
2022/11/04 01:47:29;;;;;;;2.58;1.00;;;;;;;;;;4801505;29;21132;-73
2022/11/04 01:50:11;;;;;;;1.00;0.90;;;;;;;;;;4801130;29;20537;-72
2022/11/04 01:52:57;;;;;;;2.85;0.90;;;;;;;;;;4800675;29;20055;-73
2022/11/04 01:55:31;;;;;;;2.40;1.30;;;;;;;;;;4801301;29;20074;-73
2022/11/04 01:58:05;;;;;;;6.40;1.15;;;;;;;;;;4801272;29;20055;-73
2022/11/04 02:00:38;;;;;;;1.73;0.70;;;;;;;;;;4800741;29;20077;-73
2022/11/04 02:03:16;;;;;;;1.17;0.90;;;;;;;;;;4800871;29;20055;-73
2022/11/04 02:05:47;;;;;;;2.70;1.08;;;;;;;;;;4800782;29;20047;-73
2022/11/04 02:08:18;;;;;;;2.72;0.70;;;;;;;;;;4815060;29;20062;-73
2022/11/04 02:10:57;;;;;;;3.97;1.42;;;;;;;;;;4800758;29;20058;-73
2022/11/04 02:13:29;;;;;;;2.35;1.00;;;;;;;;;;4800637;29;20058;-73
2022/11/04 02:16:11;;;;;;;2.72;0.70;;;;;;;;;;4800223;29;20043;-73
2022/11/04 02:18:54;;;;;;;1.73;0.82;;;;;;;;;;4800908;29;20059;-73
2022/11/04 02:21:24;;;;;;;1.58;0.88;;;;;;;;;;4800204;29;20062;-73
2022/11/04 02:24:05;;;;;;;6.18;1.23;;;;;;;;;;4800679;29;20505;-73
2022/11/04 02:26:57;;;;;;;3.83;1.13;;;;;;;;;;4800576;29;20058;-73
2022/11/04 02:29:26;;;;;;;5.55;0.88;;;;;;;;;;4800794;29;20046;-73
2022/11/04 02:31:59;;;;;;;;;;;;;;;;;;4801096;29;20430;-72
2022/11/04 02:34:47;;;;;;;2.90;0.98;;;;;;;;;;4800546;29;19925;-72
2022/11/04 02:37:35;;;;;;;;;;;;;;;;;;4800613;29;20043;-73
2022/11/04 02:40:17;;;;;;;1.92;0.70;;;;;;;;;;4800188;29;19925;-73
2022/11/04 02:42:57;;;;;;;5.20;1.17;;;;;;;;;;4800300;29;20051;-72
2022/11/04 02:45:46;;;;;;;6.28;1.55;;;;;;;;;;4800441;29;20066;-72
2022/11/04 02:48:31;;;;;;;5.30;1.15;;;;;;;;;;4800028;29;20065;-73
2022/11/04 02:51:12;;;;;;;3.08;1.10;;;;;;;;;;4799801;29;20070;-73
2022/11/04 02:54:00;;;;;;;5.68;1.10;;;;;;;;;;4813724;29;20054;-72
2022/11/04 02:56:34;;;;;;;4.68;0.80;;;;;;;;;;4800571;29;20055;-73
2022/11/04 02:59:10;;;;;;;1.17;0.75;;;;;;;;;;4800219;29;20063;-72
2022/11/04 03:01:45;;;;;;;4.80;1.35;;;;;;;;;;4798993;29;20055;-72
2022/11/04 03:04:23;;;;;;;4.63;1.65;;;;;;;;;;4800108;29;20078;-72
2022/11/04 03:06:55;;;;;;;3.38;0.88;;;;;;;;;;4798659;29;20050;-72
2022/11/04 03:09:28;;;;;;;2.58;0.70;;;;;;;;;;4799843;29;20825;-72
2022/11/04 03:12:06;;;;;;;5.93;0.90;;;;;;;;;;4799672;29;20055;-72
2022/11/04 03:14:43;;;;;;;3.25;0.90;;;;;;;;;;4799381;29;20051;-72
2022/11/04 03:17:36;;;;;;;8.52;1.63;;;;;;;;;;4799339;29;20047;-73
2022/11/04 03:20:14;;;;;;;3.00;0.75;;;;;;;;;;4799677;29;20066;-73
2022/11/04 03:22:44;;;;;;;2.50;0.95;;;;;;;;;;4799629;29;20530;-73
2022/11/04 03:25:14;;;;;;;3.97;1.08;;;;;;;;;;4800206;29;20055;-73
2022/11/04 03:27:51;;;;;;;2.55;1.20;;;;;;;;;;4798655;29;20055;-73
2022/11/04 03:30:22;;;;;;;4.10;1.00;;;;;;;;;;4799913;29;20061;-73
2022/11/04 03:33:03;;;;;;;5.30;1.00;;;;;;;;;;4799691;29;20533;-73
2022/11/04 03:35:34;;;;;;;3.15;1.20;;;;;;;;;;4799623;29;20422;-73
2022/11/04 03:38:04;;;;;;;4.20;0.85;;;;;;;;;;4813253;29;20066;-73
2022/11/04 03:40:33;;;;;;;5.20;1.10;;;;;;;;;;4799063;29;20054;-73
2022/11/04 03:43:10;;;;;;;;;;;;;;;;;;4800195;29;20050;-73
2022/11/04 03:45:41;;;;;;;4.07;0.88;;;;;;;;;;4800194;29;19936;-73
2022/11/04 03:48:12;;;;;;;1.92;0.60;;;;;;;;;;4798615;29;20446;-72
2022/11/04 03:50:47;;;;;;;3.65;0.90;;;;;;;;;;4813626;29;20054;-73
2022/11/04 03:53:23;;;;;;;4.90;0.98;;;;;;;;;;4799285;29;20058;-73
2022/11/04 03:56:31;;;;;;;9.77;1.33;;;;;;;;;;4799706;29;20047;-73
2022/11/04 03:59:11;;;;;;;2.53;0.90;;;;;;;;;;4799171;29;20518;-73
2022/11/04 04:01:59;;;;;;;2.03;0.93;;;;;;;;;;4798972;29;20114;-73
2022/11/04 04:04:34;;;;;;;3.90;1.33;;;;;;;;;;4799206;29;20066;-73
2022/11/04 04:07:17;;;;;;;1.55;0.90;;;;;;;;;;4798737;29;20054;-73
2022/11/04 04:10:37;;;;;;;4.13;1.27;;;;;;;;;;4798910;29;20054;-73
2022/11/04 04:13:06;;;;;;;4.05;0.93;;;;;;;;;;4799210;29;20059;-73
2022/11/04 04:16:09;;;;;;;2.72;0.80;;;;;;;;;;4799497;29;20058;-73
2022/11/04 04:19:08;;;;;;;4.40;1.00;;;;;;;;;;4799163;29;20054;-73
2022/11/04 04:22:00;;;;;;;2.58;1.05;;;;;;;;;;4799550;29;20069;-73
2022/11/04 04:27:30;;;;;;;2.70;1.00;;;;;;;;;;4798879;29;20062;-73
2022/11/04 04:30:04;;;;;;;2.05;1.00;;;;;;;;;;4798831;29;20051;-73
2022/11/04 04:32:40;;;;;;;2.30;1.00;;;;;;;;;;4799431;29;20051;-73
2022/11/04 04:46:39;;;;;;;3.00;1.38;;;;;;;;;;4802382;29;20055;-73
2022/11/04 04:49:10;;;;;;;1.17;0.90;;;;;;;;;;4800248;29;20055;-72
2022/11/04 04:51:44;;;;;;;5.93;1.33;;;;;;;;;;4815812;29;20085;-73
2022/11/04 04:54:15;;;;;;;2.80;1.25;;;;;;;;;;4802275;29;20054;-73
2022/11/04 04:56:45;;;;;;;1.85;0.90;;;;;;;;;;4802221;29;20502;-73
2022/11/04 04:59:15;;;;;;;5.40;1.15;;;;;;;;;;4802272;29;20491;-73
2022/11/04 05:01:46;;;;;;;4.43;1.20;;;;;;;;;;4801161;29;20286;-72
2022/11/04 05:04:16;;;;;;;6.00;1.05;;;;;;;;;;4801631;29;20051;-72
2022/11/04 05:06:45;;;;;;;;;;;;;;;;;;4802764;29;20058;-73
2022/11/04 05:09:15;;;;;;;3.22;1.00;;;;;;;;;;4801927;29;19929;-73
2022/11/04 05:11:45;;;;;;;;;;;;;;;;;;4802784;29;20070;-73
2022/11/04 05:14:15;;;;;;;3.88;1.00;;;;;;;;;;4801240;29;19925;-73
2022/11/04 05:16:44;;;;;;;4.50;1.23;;;;;;;;;;4801745;29;20058;-73
2022/11/04 05:19:14;;;;;;;;;;;;;;;;;;4802177;29;20515;-72
2022/11/04 05:21:43;;;;;;;3.03;1.02;;;;;;;;;;4802086;29;19925;-73
2022/11/04 05:24:13;;;;;;;5.18;0.98;;;;;;;;;;4801699;29;20046;-72
2022/11/04 05:26:43;;;;;;;4.65;1.23;;;;;;;;;;4802075;29;20494;-73
2022/11/04 05:29:12;;;;;;;;;;;;;;;;;;4802049;29;20050;-73
2022/11/04 05:31:47;;;;;;;;;;;;;;;;;;4802226;29;19935;-73
2022/11/04 05:34:16;;;;;;;4.45;1.25;;;;;;;;;;4801693;29;19925;-73
2022/11/04 05:36:46;;;;;;;5.50;0.93;;;;;;;;;;4800144;29;20081;-73
2022/11/04 05:39:16;;;;;;;;;;;;;;;;;;4801801;29;20055;-73
2022/11/04 05:41:45;;;;;;;6.70;0.88;;;;;;;;;;4801278;29;19936;-73
2022/11/04 05:44:15;;;;;;;;;;;;;;;;;;4801703;29;20062;-72
2022/11/04 05:46:44;;;;;;;1.85;0.77;;;;;;;;;;4801219;29;19936;-73
2022/11/04 05:49:14;;;;;;;1.98;0.85;;;;;;;;;;4800592;29;20075;-73
2022/11/04 05:51:43;;;;;;;;;;;;;;;;;;4801779;29;20047;-73
2022/11/04 05:54:13;;;;;;;2.10;0.98;;;;;;;;;;4801447;29;19929;-72
2022/11/04 05:56:42;;;;;;;;;;;;;;;;;;4801550;29;20051;-73
2022/11/04 05:59:12;;;;;;;2.13;0.90;;;;;;;;;;4800763;29;19933;-73
2022/11/04 06:01:42;;;;;;;6.82;1.00;;;;;;;;;;4801175;29;20061;-73
2022/11/04 06:04:15;;;;;;;2.30;1.08;;;;;;;;;;4815023;29;20066;-72
2022/11/04 06:06:45;;;;;;;3.30;1.00;;;;;;;;;;4801206;29;20825;-73
2022/11/04 06:09:15;;;;;;;3.58;0.98;;;;;;;;;;4800997;29;20054;-72
2022/11/04 06:11:45;;;;;;;;;;;;;;;;;;4801927;29;20042;-72
2022/11/04 06:14:14;;;;;;;2.15;0.77;;;;;;;;;;4800556;29;19931;-73
2022/11/04 06:16:46;;;;;;;3.30;0.90;;;;;;;;;;4800193;29;20066;-73
2022/11/04 06:19:15;;;;;;;;;;;;;;;;;;4801517;29;20545;-73
2022/11/04 06:21:46;;;;;;;3.65;1.08;;;;;;;;;;4815422;29;20435;-73
2022/11/04 06:24:17;;;;;;;;;;;;;;;;;;4801501;29;20047;-73
2022/11/04 06:26:47;;;;;;;4.15;1.17;;;;;;;;;;4800692;29;19929;-73
2022/11/04 06:29:16;;;;;;;;;;;;;;;;;;4800787;29;20055;-73
2022/11/04 06:31:46;;;;;;;3.30;0.98;;;;;;;;;;4800653;29;19936;-73
2022/11/04 06:34:15;;;;;;;;;;;;;;;;;;4800593;29;20833;-72
2022/11/04 06:36:45;;;;;;;2.80;0.95;;;;;;;;;;4800201;29;19932;-72
2022/11/04 06:39:14;;;;;;;;;;;;;;;;;;4800674;29;20055;-73
2022/11/04 06:41:45;;;;;;;6.32;1.00;;;;;;;;;;4800563;29;19936;-72
2022/11/04 06:44:19;;;;;;;2.95;0.90;;;;;;;;;;4800727;29;20061;-72
2022/11/04 06:46:49;;;;;;;;;;;;;;;;;;4800399;29;20660;-73
2022/11/04 06:49:22;;;;;;;7.07;1.30;;;;;;;;;;4800262;29;19925;-72
2022/11/04 06:51:52;;;;;;;3.22;1.13;;;;;;;;;;4800040;29;20047;-73
2022/11/04 06:54:22;;;;;;;3.92;1.00;;;;;;;;;;4800099;29;20063;-73
2022/11/04 06:56:52;;;;;;;3.00;1.08;;;;;;;;;;4799908;29;20073;-72
2022/11/04 06:59:22;;;;;;;2.65;0.90;;;;;;;;;;4799726;29;20055;-73
2022/11/04 07:01:52;;;;;;;4.57;1.08;;;;;;;;;;4799922;29;20066;-73
2022/11/04 07:04:22;;;;;;;1.20;0.82;;;;;;;;;;4799403;29;20069;-72
2022/11/04 07:06:52;;;;;;;1.88;0.77;;;;;;;;;;4799539;29;20526;-73
2022/11/04 07:09:22;;;;;;;3.42;0.95;;;;;;;;;;4799144;29;20047;-73
2022/11/04 07:11:53;;;;;;;2.50;1.10;;;;;;;;;;4799606;29;20058;-73
2022/11/04 07:14:26;;;;;;;5.80;1.42;;;;;;;;;;4799635;29;20051;-73
2022/11/04 07:16:56;;;;;;;3.35;0.80;;;;;;;;;;4800048;29;20423;-73
2022/11/04 07:19:25;;;;;;;;;;;;;;;;;;4800210;29;20062;-73
2022/11/04 07:21:54;;;;;;;3.35;0.80;;;;;;;;;;4799632;29;20249;-73
2022/11/04 07:24:24;;;;;;;;;;;;;;;;;;4800163;29;20058;-73
2022/11/04 07:26:56;;;;;;;6.57;1.02;;;;;;;;;;4799716;29;19925;-72
2022/11/04 07:29:27;;;;;;;4.90;1.10;;;;;;;;;;4800221;29;20054;-73
2022/11/04 07:31:57;;;;;;;2.35;1.00;;;;;;;;;;4800011;29;20065;-73
2022/11/04 07:34:27;;;;;;;2.75;1.35;;;;;;;;;;4799735;29;20051;-73
2022/11/04 07:36:58;;;;;;;3.97;1.10;;;;;;;;;;4800019;29;20058;-73
2022/11/04 07:39:27;;;;;;;;;;;;;;;;;;4799671;29;20506;-72
2022/11/04 07:41:57;;;;;;;7.00;1.20;;;;;;;;;;4799487;29;19933;-73
2022/11/04 07:44:28;;;;;;;2.85;1.10;;;;;;;;;;4799463;29;20491;-73
2022/11/04 07:46:58;;;;;;;2.80;1.25;;;;;;;;;;4799742;29;20055;-73
2022/11/04 07:49:28;;;;;;;3.95;1.10;;;;;;;;;;4799711;29;20077;-73
2022/11/04 07:51:58;;;;;;;2.97;1.17;;;;;;;;;;4797825;29;20062;-73
2022/11/04 07:54:27;;;;;;;;;;;;;;;;;;4799778;29;20055;-73
2022/11/04 07:56:58;;;;;;;1.15;0.95;;;;;;;;;;4799949;29;20308;-73
2022/11/04 07:59:28;;;;;;;8.93;1.05;;;;;;;;;;4799490;29;20055;-73
2022/11/04 08:01:58;;;;;;;2.60;1.20;;;;;;;;;;4799340;29;20065;-73
2022/11/04 08:04:29;;;;;;;7.75;1.40;;;;;;;;;;4799474;29;20075;-73
2022/11/04 08:07:00;;;;;;;5.78;1.50;;;;;;;;;;4799468;29;20055;-73
2022/11/04 08:09:29;;;;;;;;;;;;;;;;;;4799813;29;20050;-73
2022/11/04 08:11:58;;;;;;;2.33;1.25;;;;;;;;;;4799271;29;19926;-73
2022/11/04 08:14:28;;;;;;;7.45;1.35;;;;;;;;;;4802012;29;20050;-73
2022/11/04 08:17:03;;;;;;;4.70;1.50;;;;;;;;;;4802684;29;20054;-72
2022/11/04 08:19:33;;;;;;;4.28;1.17;;;;;;;;;;4802852;29;20062;-72
2022/11/04 08:22:02;;;;;;;;;;;;;;;;;;4803735;29;20491;-74
2022/11/04 08:24:32;;;;;;;5.88;1.30;;;;;;;;;;4802855;29;19929;-73
2022/11/04 08:27:01;;;;;;;;;;;;;;;;;;4803523;29;20383;-72
2022/11/04 08:29:32;;;;;;;4.82;1.30;;;;;;;;;;4802610;29;19936;-72
2022/11/04 08:32:02;;;;;;;3.42;1.42;;;;;;;;;;4802478;29;20061;-72
2022/11/04 08:34:32;;;;;;;5.38;1.80;;;;;;;;;;4802626;29;20517;-72
2022/11/04 08:37:01;;;;;;;;;;;;;;;;;;4816271;29;20055;-72
2022/11/04 08:39:31;;;;;;;7.90;2.15;;;;;;;;;;4802740;29;19928;-72
2022/11/04 08:42:01;;;;;;;3.22;1.58;;;;;;;;;;4802324;29;20403;-72
2022/11/04 08:44:32;;;;;;;6.13;1.83;;;;;;;;;;4802414;29;20057;-72
2022/11/04 08:47:03;;;;;;;5.57;1.60;;;;;;;;;;4802483;29;20047;-76
2022/11/04 08:49:38;;;;;;;5.95;1.65;;;;;;;;;;4802494;29;20051;-72
2022/11/04 08:52:08;;;;;;;5.00;1.83;;;;;;;;;;4801889;29;20114;-72
2022/11/04 08:54:38;;;;;;;4.65;2.00;;;;;;;;;;4800596;29;20063;-72
2022/11/04 08:57:08;;;;;;;4.68;1.67;;;;;;;;;;4802116;29;20055;-72
2022/11/04 08:59:38;;;;;;;4.22;1.60;;;;;;;;;;4802396;29;20055;-74
2022/11/04 09:02:16;;;;;;;6.82;1.52;;;;;;;;;;4802328;29;20050;-75
2022/11/04 09:04:46;;;;;;;4.32;1.77;;;;;;;;;;4801993;29;20050;-73
2022/11/04 09:07:17;;;;;;;6.72;1.60;;;;;;;;;;4800888;29;20055;-72
2022/11/04 09:09:47;;;;;;;3.45;1.75;;;;;;;;;;4802239;29;20506;-72
2022/11/04 09:12:17;;;;;;;6.32;1.67;;;;;;;;;;4801943;29;20054;-72
2022/11/04 09:14:46;;;;;;;;;;;;;;;;;;4802556;29;20427;-72
2022/11/04 09:17:15;;;;;;;2.15;1.15;;;;;;;;;;4801919;29;19933;-72
2022/11/04 09:19:45;;;;;;;;;;;;;;;;;;4801866;29;20051;-73
2022/11/04 09:22:14;;;;;;;11.07;1.75;;;;;;;;;;4801438;29;19933;-74
2022/11/04 09:24:43;;;;;;;;;;;;;;;;;;4800716;29;20074;-74
2022/11/04 09:27:13;;;;;;;3.10;1.10;;;;;;;;;;4801522;29;19929;-74
2022/11/04 09:29:43;;;;;;;8.50;4.10;;;;;;;;;;4801460;29;20062;-73
2022/11/04 09:32:13;;;;;;;2.95;2.55;;;;;;;;;;4801525;29;20050;-74
2022/11/04 09:34:42;;;;;;;;;;;;;;;;;;4801703;29;20441;-74
2022/11/04 09:37:12;;;;;;;8.60;1.90;;;;;;;;;;4800317;29;20384;-74
2022/11/04 09:39:42;;;;;;;8.60;2.75;;;;;;;;;;4801385;29;20058;-74
2022/11/04 09:42:20;;;;;;;;;;;;;;;;;;4801655;29;20058;-73
2022/11/04 09:45:17;;;;;;;5.15;1.60;;;;;;;;;;4801371;29;19929;-73
2022/11/04 09:47:54;;;;;;;8.38;3.58;;;;;;;;;;4801168;29;20066;-74
2022/11/04 09:50:30;;;;;;;4.15;1.30;;;;;;;;;;4794298;29;20058;-75
2022/11/04 09:53:16;;;;;;;4.38;1.40;;;;;;;;;;4796558;29;20055;-74
2022/11/04 09:56:18;;;;;;;3.60;1.38;;;;;;;;;;4796775;29;20062;-75
2022/11/04 09:58:50;;;;;;;5.65;1.40;;;;;;;;;;4787657;29;20557;-74
2022/11/04 10:01:37;;;;;;;3.47;1.65;;;;;;;;;;4782728;30;20059;-75
2022/11/04 10:04:30;;;;;;;7.53;2.15;;;;;;;;;;4783594;30;20420;-77
2022/11/04 10:07:12;;;;;;;11.90;1.92;;;;;;;;;;4783484;30;20047;-74
2022/11/04 10:09:48;;;;;;;8.32;1.20;;;;;;;;;;4782813;30;20062;-72
2022/11/04 10:12:47;;;;;;;9.95;1.50;;;;;;;;;;4783045;30;20070;-77
2022/11/04 10:15:30;;;;;;;5.97;1.60;;;;;;;;;;4782760;30;20515;-73
2022/11/04 10:18:22;;;;;;;11.63;2.00;;;;;;;;;;4782746;30;20047;-73
2022/11/04 10:21:16;;;;;;;9.20;1.42;;;;;;;;;;4783722;30;20507;-73
2022/11/04 10:24:15;;;;;;;12.82;2.10;;;;;;;;;;4782987;30;20051;-73
2022/11/04 10:26:49;;;;;;;7.18;1.65;;;;;;;;;;4782908;29;20047;-74
2022/11/04 10:29:33;;;;;;;8.82;2.90;;;;;;;;;;4782624;30;20063;-74
2022/11/04 10:32:18;;;;;;;7.90;1.20;;;;;;;;;;4782514;30;20044;-73
2022/11/04 10:34:59;;;;;;;8.10;1.73;;;;;;;;;;4782132;29;20059;-73
2022/11/04 10:37:30;;;;;;;6.25;1.00;;;;;;;;;;4781832;29;20507;-73
2022/11/04 10:40:27;;;;;;;6.93;1.70;;;;;;;;;;4782536;30;20702;-74
2022/11/04 10:43:00;;;;;;;5.72;1.15;;;;;;;;;;4781011;30;20051;-72
2022/11/04 10:45:40;;;;;;;8.38;2.33;;;;;;;;;;4782358;30;20416;-72
2022/11/04 10:48:26;;;;;;;7.22;1.42;;;;;;;;;;4781203;30;20059;-73
2022/11/04 10:50:58;;;;;;;6.43;1.63;;;;;;;;;;4782077;30;20559;-74
2022/11/04 10:53:31;;;;;;;9.00;2.20;;;;;;;;;;4782092;30;20058;-73
2022/11/04 10:56:17;;;;;;;8.00;1.90;;;;;;;;;;4781453;29;20070;-73
2022/11/04 10:58:48;;;;;;;8.40;1.55;;;;;;;;;;4781876;30;20426;-72
2022/11/04 11:01:33;;;;;;;7.43;1.52;;;;;;;;;;4782338;30;20063;-73
2022/11/04 11:04:07;;;;;;;4.05;1.38;;;;;;;;;;4796054;29;20055;-75
2022/11/04 11:06:38;;;;;;;8.48;1.90;;;;;;;;;;4782051;30;20051;-73
2022/11/04 11:09:32;;;;;;;7.78;1.58;;;;;;;;;;4782768;29;20051;-73
2022/11/04 11:12:17;;;;;;;4.72;1.27;;;;;;;;;;4782067;30;20047;-73
2022/11/04 11:15:35;;;;;;;6.40;1.75;;;;;;;;;;4795182;29;20070;-74
2022/11/04 11:18:15;;;;;;;4.57;1.17;;;;;;;;;;4782590;29;20071;-72
2022/11/04 11:20:51;;;;;;;7.40;1.85;;;;;;;;;;4781631;30;20396;-73
2022/11/04 11:23:39;;;;;;;8.55;3.22;;;;;;;;;;4781697;30;20051;-75
2022/11/04 11:26:20;;;;;;;5.13;1.45;;;;;;;;;;4781468;30;20047;-74
2022/11/04 11:29:00;;;;;;;8.35;1.23;;;;;;;;;;4781303;30;20051;-74
2022/11/04 11:31:39;;;;;;;9.98;2.05;;;;;;;;;;4781785;30;20051;-73
2022/11/04 11:34:25;;;;;;;5.53;1.75;;;;;;;;;;4781847;30;20047;-73
2022/11/04 11:36:56;;;;;;;3.42;1.38;;;;;;;;;;4781441;30;20052;-73
2022/11/04 11:39:29;;;;;;;6.07;1.27;;;;;;;;;;4781880;30;20059;-73
2022/11/04 11:42:07;;;;;;;6.57;0.95;;;;;;;;;;4781467;30;20058;-73
2022/11/04 11:44:45;;;;;;;6.13;0.90;;;;;;;;;;4781824;30;20788;-73
2022/11/04 11:47:26;;;;;;;4.63;0.60;;;;;;;;;;4781323;29;20055;-73
2022/11/04 11:50:05;;;;;;;;;;;;;;;;;;4785977;30;20055;-73
2022/11/04 11:52:37;;;;;;;4.43;0.82;;;;;;;;;;4785030;30;19925;-73
2022/11/04 11:55:26;;;;;;;4.15;0.98;;;;;;;;;;4785299;30;20063;-73
2022/11/04 11:58:15;;;;;;;6.20;0.88;;;;;;;;;;4785480;30;20047;-77
2022/11/04 12:01:08;;;;;;;4.10;0.80;;;;;;;;;;4785420;30;20801;-73
2022/11/04 12:03:50;;;;;;;4.15;0.68;;;;;;;;;;4798833;29;20648;-72
2022/11/04 12:07:06;;;;;;;5.22;0.98;;;;;;;;;;4784715;30;20051;-73
2022/11/04 12:10:18;;;;;;;3.13;0.80;;;;;;;;;;4784617;30;20423;-72
2022/11/04 12:13:22;;;;;;;6.55;0.80;;;;;;;;;;4784649;29;20051;-72
2022/11/04 12:16:17;;;;;;;7.38;1.00;;;;;;;;;;4784931;30;20058;-72
2022/11/04 12:19:05;;;;;;;6.53;1.30;;;;;;;;;;4785139;30;20059;-72
2022/11/04 12:21:59;;;;;;;7.05;1.25;;;;;;;;;;4784814;30;20063;-73
2022/11/04 12:25:03;;;;;;;7.47;1.00;;;;;;;;;;4784642;30;20059;-73
2022/11/04 12:27:57;;;;;;;2.92;0.77;;;;;;;;;;4784292;30;20642;-72
2022/11/04 12:30:33;;;;;;;6.30;0.90;;;;;;;;;;4784437;30;20424;-73
2022/11/04 12:33:33;;;;;;;5.57;1.33;;;;;;;;;;4784474;30;20546;-73
2022/11/04 12:36:46;;;;;;;5.78;0.95;;;;;;;;;;4784514;29;20400;-72
2022/11/04 12:39:35;;;;;;;4.13;0.77;;;;;;;;;;4784201;29;20048;-72
2022/11/04 12:42:27;;;;;;;4.88;1.05;;;;;;;;;;4784405;30;20545;-72
2022/11/04 12:45:11;;;;;;;7.45;1.10;;;;;;;;;;4784487;30;20039;-72
2022/11/04 12:47:44;;;;;;;2.70;0.60;;;;;;;;;;4784715;30;20408;-73
2022/11/04 12:50:31;;;;;;;4.50;0.90;;;;;;;;;;4798405;29;20440;-74
2022/11/04 12:53:10;;;;;;;4.22;1.20;;;;;;;;;;4784140;30;20051;-73
2022/11/04 12:55:58;;;;;;;5.07;1.05;;;;;;;;;;4784130;30;20051;-74
2022/11/04 12:58:48;;;;;;;2.78;0.85;;;;;;;;;;4783806;29;20426;-74
2022/11/04 13:01:43;;;;;;;2.92;0.93;;;;;;;;;;4783943;30;20054;-74
2022/11/04 13:04:19;;;;;;;10.38;1.58;;;;;;;;;;4783999;30;20063;-73
2022/11/04 13:07:00;;;;;;;5.20;0.75;;;;;;;;;;4783283;30;20055;-78
2022/11/04 13:09:39;;;;;;;;;;;;;;;;;;4798505;29;20047;-80
2022/11/04 13:12:15;;;;;;;5.30;0.93;;;;;;;;;;4783838;30;20313;-72
2022/11/04 13:14:54;;;;;;;3.50;0.80;;;;;;;;;;4783777;30;20131;-73
2022/11/04 13:17:30;;;;;;;7.47;1.23;;;;;;;;;;4797518;29;20062;-73
2022/11/04 13:20:25;;;;;;;2.83;0.90;;;;;;;;;;4784147;30;20507;-72
2022/11/04 13:23:00;;;;;;;2.50;0.73;;;;;;;;;;4784217;30;20055;-72
2022/11/04 13:25:42;;;;;;;5.40;0.90;;;;;;;;;;4783567;30;20047;-72
2022/11/04 13:28:13;;;;;;;;;;;;;;;;;;4784148;30;20074;-73
2022/11/04 13:30:59;;;;;;;2.92;0.50;;;;;;;;;;4784196;30;19929;-73
2022/11/04 13:33:48;;;;;;;3.92;1.20;;;;;;;;;;4783785;30;20050;-73
2022/11/04 13:36:40;;;;;;;6.22;0.70;;;;;;;;;;4783032;29;20063;-73
2022/11/04 13:39:24;;;;;;;1.50;0.60;;;;;;;;;;4783244;30;20051;-73
2022/11/04 13:41:54;;;;;;;5.75;0.95;;;;;;;;;;4783097;30;20515;-73
2022/11/04 13:44:31;;;;;;;6.82;1.05;;;;;;;;;;4783390;30;20055;-74
2022/11/04 13:47:05;;;;;;;3.92;0.77;;;;;;;;;;4783067;29;20063;-72
2022/11/04 13:49:36;;;;;;;4.80;0.73;;;;;;;;;;4783442;29;20066;-75
2022/11/04 13:52:12;;;;;;;2.35;0.73;;;;;;;;;;4783292;30;20232;-73
2022/11/04 13:54:54;;;;;;;3.22;0.82;;;;;;;;;;4783247;30;20055;-72
2022/11/04 13:57:48;;;;;;;4.88;0.70;;;;;;;;;;4783314;30;20055;-76
2022/11/04 14:00:22;;;;;;;5.93;0.90;;;;;;;;;;4783031;30;20050;-73
2022/11/04 14:03:00;;;;;;;3.67;1.00;;;;;;;;;;4783324;30;20059;-72
2022/11/04 14:05:35;;;;;;;5.47;0.70;;;;;;;;;;4782808;30;20527;-76
2022/11/04 14:08:17;;;;;;;4.88;0.80;;;;;;;;;;4783159;30;20062;-75
2022/11/04 14:10:50;;;;;;;6.25;2.95;;;;;;;;;;4782144;29;20047;-74
2022/11/04 14:13:28;;;;;;;3.90;0.50;;;;;;;;;;4783083;30;20051;-73
2022/11/04 14:16:16;;;;;;;2.92;0.93;;;;;;;;;;4782430;30;20063;-73
2022/11/04 14:18:49;;;;;;;1.55;0.65;;;;;;;;;;4783043;30;20059;-73
2022/11/04 14:21:22;;;;;;;5.28;0.90;;;;;;;;;;4783283;30;20047;-73
2022/11/04 14:23:52;;;;;;;2.88;0.68;;;;;;;;;;4782809;30;20059;-73
2022/11/04 14:26:44;;;;;;;3.65;0.80;;;;;;;;;;4782626;30;20148;-73
2022/11/04 14:29:32;;;;;;;3.00;0.60;;;;;;;;;;4783232;29;20431;-73
2022/11/04 14:32:12;;;;;;;3.90;0.75;;;;;;;;;;4782716;30;20058;-75
2022/11/04 14:34:43;;;;;;;1.92;0.70;;;;;;;;;;4782236;29;20511;-73
2022/11/04 14:37:22;;;;;;;2.53;0.63;;;;;;;;;;4782432;30;20059;-76
2022/11/04 14:39:58;;;;;;;4.60;0.85;;;;;;;;;;4782134;30;20062;-73
2022/11/04 14:42:46;;;;;;;3.47;0.60;;;;;;;;;;4783012;30;20439;-74
2022/11/04 14:45:26;;;;;;;5.28;0.70;;;;;;;;;;4782499;30;20077;-73
2022/11/04 14:48:19;;;;;;;3.47;0.80;;;;;;;;;;4782777;30;20050;-74
2022/11/04 14:50:53;;;;;;;1.58;0.55;;;;;;;;;;4782158;30;20055;-75
2022/11/04 14:53:36;;;;;;;4.38;0.75;;;;;;;;;;4782205;30;20078;-74
2022/11/04 14:56:19;;;;;;;7.70;0.90;;;;;;;;;;4782878;29;20063;-78
2022/11/04 14:58:59;;;;;;;3.60;0.50;;;;;;;;;;4782557;30;20464;-74
2022/11/04 15:01:35;;;;;;;2.70;0.47;;;;;;;;;;4782125;30;20043;-74
2022/11/04 15:04:31;;;;;;;6.78;0.63;;;;;;;;;;4782519;29;20059;-73
2022/11/04 15:07:03;;;;;;;2.83;0.55;;;;;;;;;;4782359;30;20055;-77
2022/11/04 15:09:39;;;;;;;3.88;0.80;;;;;;;;;;4782322;30;20051;-73
2022/11/04 15:15:30;;;;;;;6.95;0.52;;;;;;;;;;4800083;29;20519;-74
2022/11/04 15:18:20;;;;;;;3.60;0.70;;;;;;;;;;4781967;30;20062;-74
2022/11/04 15:20:59;;;;;;;3.80;0.38;;;;;;;;;;4780894;30;20047;-74
2022/11/04 15:23:34;;;;;;;1.42;0.40;;;;;;;;;;4781728;29;20429;-74
2022/11/04 15:26:04;;;;;;;4.47;0.68;;;;;;;;;;4781185;30;20051;-76
2022/11/04 15:28:47;;;;;;;1.83;0.57;;;;;;;;;;4781614;30;20059;-75
2022/11/04 15:31:20;;;;;;;5.10;2.83;;;;;;;;;;4782643;30;20048;-74
2022/11/04 15:34:01;;;;;;;4.55;1.10;;;;;;;;;;4782036;30;20070;-78
2022/11/04 15:36:40;;;;;;;3.15;0.90;;;;;;;;;;4781106;30;20090;-77
2022/11/04 15:39:12;;;;;;;3.20;0.90;;;;;;;;;;4781659;30;20059;-78
2022/11/04 15:44:37;;;;;;;1.15;0.60;;;;;;;;;;4780544;29;20059;-74
2022/11/04 15:47:19;;;;;;;5.22;0.90;;;;;;;;;;4781740;30;20055;-74
2022/11/04 15:49:52;;;;;;;3.90;0.85;;;;;;;;;;4781401;30;20383;-78
2022/11/04 15:52:27;;;;;;;3.75;0.52;;;;;;;;;;4782055;30;20047;-73
2022/11/04 15:54:59;;;;;;;3.20;0.80;;;;;;;;;;4780836;30;20063;-72
2022/11/04 15:57:37;;;;;;;4.35;0.80;;;;;;;;;;4781616;30;20056;-73
2022/11/04 16:00:08;;;;;;;6.45;0.73;;;;;;;;;;4781386;30;20047;-73
2022/11/04 16:02:51;;;;;;;7.22;0.70;;;;;;;;;;4781669;30;20622;-76
2022/11/04 16:05:34;;;;;;;3.72;0.85;;;;;;;;;;4781490;30;20059;-74
2022/11/04 16:08:19;;;;;;;2.38;0.70;;;;;;;;;;4781110;30;20048;-73
2022/11/04 16:11:06;;;;;;;6.05;0.75;;;;;;;;;;4781432;30;20046;-74
2022/11/04 16:13:37;;;;;;;3.97;0.95;;;;;;;;;;4781312;30;20048;-77
2022/11/04 16:16:25;;;;;;;5.28;0.50;;;;;;;;;;4781444;30;20048;-74
2022/11/04 16:18:57;;;;;;;6.65;0.73;;;;;;;;;;4781136;30;20571;-74
2022/11/04 16:21:32;;;;;;;3.15;0.47;;;;;;;;;;4781133;30;20051;-74
2022/11/04 16:24:20;;;;;;;2.55;0.40;;;;;;;;;;4781084;30;20048;-73
2022/11/04 16:26:55;;;;;;;3.63;0.68;;;;;;;;;;4795151;29;20063;-74